sensor_id;sensor_type;location;lat;lon;timestamp;P1;durP1;ratioP1;P2;durP2;ratioP2
76098;SDS011;64828;49.956;8.636;2023-08-06T00:00:09;6.67;;;4.03;;
76098;SDS011;64828;49.956;8.636;2023-08-06T00:00:25;7.03;;;4.00;;
76098;SDS011;64828;49.956;8.636;2023-08-06T00:00:41;5.60;;;3.78;;
76098;SDS011;64828;49.956;8.636;2023-08-06T00:00:57;4.90;;;3.50;;
76098;SDS011;64828;49.956;8.636;2023-08-06T00:01:12;5.00;;;3.67;;
76098;SDS011;64828;49.956;8.636;2023-08-06T00:01:27;5.33;;;3.80;;
76098;SDS011;64828;49.956;8.636;2023-08-06T00:01:43;5.30;;;3.70;;
76098;SDS011;64828;49.956;8.636;2023-08-06T00:01:58;5.23;;;3.63;;
76098;SDS011;64828;49.956;8.636;2023-08-06T00:02:14;5.57;;;3.75;;
76098;SDS011;64828;49.956;8.636;2023-08-06T00:02:29;5.85;;;3.95;;
76098;SDS011;64828;49.956;8.636;2023-08-06T00:02:45;5.20;;;4.00;;
76098;SDS011;64828;49.956;8.636;2023-08-06T00:03:00;4.68;;;3.90;;
76098;SDS011;64828;49.956;8.636;2023-08-06T00:03:16;4.60;;;3.80;;
76098;SDS011;64828;49.956;8.636;2023-08-06T00:03:31;5.68;;;3.70;;
76098;SDS011;64828;49.956;8.636;2023-08-06T00:03:47;6.93;;;3.97;;
76098;SDS011;64828;49.956;8.636;2023-08-06T00:04:02;6.70;;;3.83;;
76098;SDS011;64828;49.956;8.636;2023-08-06T00:04:18;5.17;;;3.40;;
76098;SDS011;64828;49.956;8.636;2023-08-06T00:04:34;4.60;;;3.38;;
76098;SDS011;64828;49.956;8.636;2023-08-06T00:04:49;5.40;;;3.67;;
76098;SDS011;64828;49.956;8.636;2023-08-06T00:05:05;5.30;;;3.93;;
76098;SDS011;64828;49.956;8.636;2023-08-06T00:05:21;5.15;;;3.90;;
76098;SDS011;64828;49.956;8.636;2023-08-06T00:05:36;5.97;;;3.88;;
76098;SDS011;64828;49.956;8.636;2023-08-06T00:05:52;5.90;;;3.90;;
76098;SDS011;64828;49.956;8.636;2023-08-06T00:06:07;5.07;;;3.88;;
76098;SDS011;64828;49.956;8.636;2023-08-06T00:06:23;4.70;;;3.70;;
76098;SDS011;64828;49.956;8.636;2023-08-06T00:06:38;5.82;;;3.80;;
76098;SDS011;64828;49.956;8.636;2023-08-06T00:06:54;7.77;;;3.83;;
76098;SDS011;64828;49.956;8.636;2023-08-06T00:07:09;7.05;;;3.65;;
76098;SDS011;64828;49.956;8.636;2023-08-06T00:07:25;5.40;;;3.67;;
76098;SDS011;64828;49.956;8.636;2023-08-06T00:07:40;5.55;;;3.78;;
76098;SDS011;64828;49.956;8.636;2023-08-06T00:07:56;5.47;;;4.17;;
76098;SDS011;64828;49.956;8.636;2023-08-06T00:08:11;8.07;;;4.30;;
76098;SDS011;64828;49.956;8.636;2023-08-06T00:08:27;7.40;;;3.77;;
76098;SDS011;64828;49.956;8.636;2023-08-06T00:08:42;5.10;;;3.70;;
76098;SDS011;64828;49.956;8.636;2023-08-06T00:08:58;6.40;;;3.92;;
76098;SDS011;64828;49.956;8.636;2023-08-06T00:09:13;6.67;;;4.07;;
76098;SDS011;64828;49.956;8.636;2023-08-06T00:09:29;5.70;;;4.13;;
76098;SDS011;64828;49.956;8.636;2023-08-06T00:09:44;5.50;;;3.93;;
76098;SDS011;64828;49.956;8.636;2023-08-06T00:10:00;5.90;;;3.80;;
76098;SDS011;64828;49.956;8.636;2023-08-06T00:10:15;5.30;;;3.80;;
76098;SDS011;64828;49.956;8.636;2023-08-06T00:10:31;5.35;;;3.70;;
76098;SDS011;64828;49.956;8.636;2023-08-06T00:10:47;6.13;;;3.60;;
76098;SDS011;64828;49.956;8.636;2023-08-06T00:11:03;6.00;;;3.92;;
76098;SDS011;64828;49.956;8.636;2023-08-06T00:11:19;6.10;;;4.18;;
76098;SDS011;64828;49.956;8.636;2023-08-06T00:11:34;6.27;;;4.00;;
76098;SDS011;64828;49.956;8.636;2023-08-06T00:11:50;5.90;;;3.80;;
76098;SDS011;64828;49.956;8.636;2023-08-06T00:12:05;6.17;;;3.73;;
76098;SDS011;64828;49.956;8.636;2023-08-06T00:12:21;6.55;;;4.07;;
76098;SDS011;64828;49.956;8.636;2023-08-06T00:12:36;6.17;;;4.30;;
76098;SDS011;64828;49.956;8.636;2023-08-06T00:12:52;5.47;;;4.03;;
76098;SDS011;64828;49.956;8.636;2023-08-06T00:13:07;5.15;;;3.80;;
76098;SDS011;64828;49.956;8.636;2023-08-06T00:13:23;5.97;;;3.77;;
76098;SDS011;64828;49.956;8.636;2023-08-06T00:13:38;6.13;;;3.67;;
76098;SDS011;64828;49.956;8.636;2023-08-06T00:13:53;6.27;;;3.77;;
76098;SDS011;64828;49.956;8.636;2023-08-06T00:14:09;6.28;;;3.85;;
76098;SDS011;64828;49.956;8.636;2023-08-06T00:14:25;6.87;;;4.03;;
76098;SDS011;64828;49.956;8.636;2023-08-06T00:14:40;6.03;;;3.97;;
76098;SDS011;64828;49.956;8.636;2023-08-06T00:14:55;5.60;;;3.90;;
76098;SDS011;64828;49.956;8.636;2023-08-06T00:15:11;5.95;;;4.10;;
76098;SDS011;64828;49.956;8.636;2023-08-06T00:15:27;5.30;;;4.10;;
76098;SDS011;64828;49.956;8.636;2023-08-06T00:15:42;5.78;;;4.05;;
76098;SDS011;64828;49.956;8.636;2023-08-06T00:16:08;6.17;;;3.77;;
76098;SDS011;64828;49.956;8.636;2023-08-06T00:16:27;5.55;;;3.72;;
76098;SDS011;64828;49.956;8.636;2023-08-06T00:16:43;6.00;;;3.87;;
76098;SDS011;64828;49.956;8.636;2023-08-06T00:16:59;5.97;;;4.00;;
76098;SDS011;64828;49.956;8.636;2023-08-06T00:17:14;5.78;;;4.05;;
76098;SDS011;64828;49.956;8.636;2023-08-06T00:17:30;6.17;;;3.93;;
76098;SDS011;64828;49.956;8.636;2023-08-06T00:17:45;6.70;;;3.78;;
76098;SDS011;64828;49.956;8.636;2023-08-06T00:18:01;6.03;;;3.77;;
76098;SDS011;64828;49.956;8.636;2023-08-06T00:18:16;6.38;;;4.03;;
76098;SDS011;64828;49.956;8.636;2023-08-06T00:18:31;6.90;;;4.30;;
76098;SDS011;64828;49.956;8.636;2023-08-06T00:18:47;6.30;;;4.17;;
76098;SDS011;64828;49.956;8.636;2023-08-06T00:19:02;5.65;;;3.75;;
76098;SDS011;64828;49.956;8.636;2023-08-06T00:19:18;5.67;;;3.87;;
76098;SDS011;64828;49.956;8.636;2023-08-06T00:19:33;5.47;;;3.90;;
76098;SDS011;64828;49.956;8.636;2023-08-06T00:19:49;4.97;;;3.87;;
76098;SDS011;64828;49.956;8.636;2023-08-06T00:20:04;4.63;;;3.80;;
76098;SDS011;64828;49.956;8.636;2023-08-06T00:20:21;5.10;;;3.80;;
76098;SDS011;64828;49.956;8.636;2023-08-06T00:20:38;6.38;;;4.10;;
76098;SDS011;64828;49.956;8.636;2023-08-06T00:20:55;6.88;;;4.15;;
76098;SDS011;64828;49.956;8.636;2023-08-06T00:21:10;5.87;;;4.13;;
76098;SDS011;64828;49.956;8.636;2023-08-06T00:21:27;6.47;;;4.15;;
76098;SDS011;64828;49.956;8.636;2023-08-06T00:21:42;6.70;;;3.95;;
76098;SDS011;64828;49.956;8.636;2023-08-06T00:21:58;4.73;;;3.80;;
76098;SDS011;64828;49.956;8.636;2023-08-06T00:22:13;6.38;;;3.95;;
76098;SDS011;64828;49.956;8.636;2023-08-06T00:22:29;7.90;;;4.27;;
76098;SDS011;64828;49.956;8.636;2023-08-06T00:22:45;6.18;;;3.90;;
76098;SDS011;64828;49.956;8.636;2023-08-06T00:23:01;6.05;;;3.80;;
76098;SDS011;64828;49.956;8.636;2023-08-06T00:23:17;5.78;;;4.10;;
76098;SDS011;64828;49.956;8.636;2023-08-06T00:23:33;4.97;;;3.90;;
76098;SDS011;64828;49.956;8.636;2023-08-06T00:23:48;5.20;;;3.73;;
76098;SDS011;64828;49.956;8.636;2023-08-06T00:24:04;5.40;;;3.80;;
76098;SDS011;64828;49.956;8.636;2023-08-06T00:24:19;7.17;;;3.97;;
76098;SDS011;64828;49.956;8.636;2023-08-06T00:24:35;7.35;;;4.10;;
76098;SDS011;64828;49.956;8.636;2023-08-06T00:24:50;5.40;;;4.00;;
76098;SDS011;64828;49.956;8.636;2023-08-06T00:25:07;5.28;;;4.10;;
76098;SDS011;64828;49.956;8.636;2023-08-06T00:25:23;5.88;;;4.40;;
76098;SDS011;64828;49.956;8.636;2023-08-06T00:25:38;5.93;;;4.40;;
76098;SDS011;64828;49.956;8.636;2023-08-06T00:25:54;5.20;;;4.00;;
76098;SDS011;64828;49.956;8.636;2023-08-06T00:26:09;5.50;;;3.77;;
76098;SDS011;64828;49.956;8.636;2023-08-06T00:26:25;6.22;;;3.70;;
76098;SDS011;64828;49.956;8.636;2023-08-06T00:26:40;5.80;;;3.87;;
76098;SDS011;64828;49.956;8.636;2023-08-06T00:26:56;7.07;;;4.18;;
76098;SDS011;64828;49.956;8.636;2023-08-06T00:27:11;7.30;;;4.30;;
76098;SDS011;64828;49.956;8.636;2023-08-06T00:27:27;5.97;;;4.13;;
76098;SDS011;64828;49.956;8.636;2023-08-06T00:27:42;6.77;;;3.90;;
76098;SDS011;64828;49.956;8.636;2023-08-06T00:27:58;5.93;;;3.50;;
76098;SDS011;64828;49.956;8.636;2023-08-06T00:28:13;5.03;;;3.50;;
76098;SDS011;64828;49.956;8.636;2023-08-06T00:28:29;5.70;;;3.87;;
76098;SDS011;64828;49.956;8.636;2023-08-06T00:28:44;6.28;;;3.75;;
76098;SDS011;64828;49.956;8.636;2023-08-06T00:28:59;6.27;;;3.33;;
76098;SDS011;64828;49.956;8.636;2023-08-06T00:29:15;6.00;;;3.35;;
76098;SDS011;64828;49.956;8.636;2023-08-06T00:29:30;6.37;;;3.53;;
76098;SDS011;64828;49.956;8.636;2023-08-06T00:29:46;6.32;;;3.55;;
76098;SDS011;64828;49.956;8.636;2023-08-06T00:30:01;6.20;;;3.83;;
76098;SDS011;64828;49.956;8.636;2023-08-06T00:30:17;5.25;;;3.63;;
76098;SDS011;64828;49.956;8.636;2023-08-06T00:30:33;4.43;;;3.40;;
76098;SDS011;64828;49.956;8.636;2023-08-06T00:30:56;6.07;;;3.40;;
76098;SDS011;64828;49.956;8.636;2023-08-06T00:31:12;8.05;;;3.50;;
76098;SDS011;64828;49.956;8.636;2023-08-06T00:31:28;5.57;;;3.63;;
76098;SDS011;64828;49.956;8.636;2023-08-06T00:31:43;5.22;;;3.60;;
76098;SDS011;64828;49.956;8.636;2023-08-06T00:31:59;5.77;;;3.90;;
76098;SDS011;64828;49.956;8.636;2023-08-06T00:32:14;5.20;;;3.80;;
76098;SDS011;64828;49.956;8.636;2023-08-06T00:32:30;5.47;;;3.70;;
76098;SDS011;64828;49.956;8.636;2023-08-06T00:32:45;5.50;;;3.50;;
76098;SDS011;64828;49.956;8.636;2023-08-06T00:33:01;5.05;;;3.30;;
76098;SDS011;64828;49.956;8.636;2023-08-06T00:33:16;4.83;;;3.57;;
76098;SDS011;64828;49.956;8.636;2023-08-06T00:33:31;4.70;;;3.40;;
76098;SDS011;64828;49.956;8.636;2023-08-06T00:33:47;5.07;;;3.30;;
76098;SDS011;64828;49.956;8.636;2023-08-06T00:34:02;6.10;;;3.60;;
76098;SDS011;64828;49.956;8.636;2023-08-06T00:34:18;8.00;;;3.80;;
76098;SDS011;64828;49.956;8.636;2023-08-06T00:34:33;7.38;;;3.65;;
76098;SDS011;64828;49.956;8.636;2023-08-06T00:34:49;8.87;;;4.43;;
76098;SDS011;64828;49.956;8.636;2023-08-06T00:35:04;8.30;;;4.57;;
76098;SDS011;64828;49.956;8.636;2023-08-06T00:35:20;4.65;;;3.65;;
76098;SDS011;64828;49.956;8.636;2023-08-06T00:35:35;5.53;;;3.60;;
76098;SDS011;64828;49.956;8.636;2023-08-06T00:35:51;6.67;;;3.70;;
76098;SDS011;64828;49.956;8.636;2023-08-06T00:36:06;6.25;;;3.65;;
76098;SDS011;64828;49.956;8.636;2023-08-06T00:36:22;5.53;;;3.43;;
76098;SDS011;64828;49.956;8.636;2023-08-06T00:36:37;5.10;;;3.40;;
76098;SDS011;64828;49.956;8.636;2023-08-06T00:36:53;5.82;;;3.80;;
76098;SDS011;64828;49.956;8.636;2023-08-06T00:37:09;5.93;;;3.65;;
76098;SDS011;64828;49.956;8.636;2023-08-06T00:37:24;5.40;;;3.43;;
76098;SDS011;64828;49.956;8.636;2023-08-06T00:37:40;4.93;;;3.50;;
76098;SDS011;64828;49.956;8.636;2023-08-06T00:37:55;5.07;;;3.60;;
76098;SDS011;64828;49.956;8.636;2023-08-06T00:38:11;5.63;;;3.55;;
76098;SDS011;64828;49.956;8.636;2023-08-06T00:38:26;5.63;;;3.50;;
76098;SDS011;64828;49.956;8.636;2023-08-06T00:38:42;4.70;;;3.33;;
76098;SDS011;64828;49.956;8.636;2023-08-06T00:38:57;4.25;;;3.22;;
76098;SDS011;64828;49.956;8.636;2023-08-06T00:39:12;5.20;;;3.47;;
76098;SDS011;64828;49.956;8.636;2023-08-06T00:39:28;5.28;;;3.50;;
76098;SDS011;64828;49.956;8.636;2023-08-06T00:39:44;5.00;;;3.23;;
76098;SDS011;64828;49.956;8.636;2023-08-06T00:39:59;5.28;;;3.20;;
76098;SDS011;64828;49.956;8.636;2023-08-06T00:40:15;5.47;;;3.38;;
76098;SDS011;64828;49.956;8.636;2023-08-06T00:40:30;6.20;;;3.43;;
76098;SDS011;64828;49.956;8.636;2023-08-06T00:40:46;5.78;;;3.40;;
76098;SDS011;64828;49.956;8.636;2023-08-06T00:41:02;4.50;;;3.33;;
76098;SDS011;64828;49.956;8.636;2023-08-06T00:41:17;5.37;;;3.40;;
76098;SDS011;64828;49.956;8.636;2023-08-06T00:41:33;5.90;;;3.50;;
76098;SDS011;64828;49.956;8.636;2023-08-06T00:41:48;5.28;;;3.42;;
76098;SDS011;64828;49.956;8.636;2023-08-06T00:42:04;5.17;;;3.40;;
76098;SDS011;64828;49.956;8.636;2023-08-06T00:42:19;5.03;;;3.50;;
76098;SDS011;64828;49.956;8.636;2023-08-06T00:42:36;5.05;;;3.50;;
76098;SDS011;64828;49.956;8.636;2023-08-06T00:42:51;6.07;;;3.58;;
76098;SDS011;64828;49.956;8.636;2023-08-06T00:43:07;7.23;;;3.40;;
76098;SDS011;64828;49.956;8.636;2023-08-06T00:43:22;6.68;;;3.45;;
76098;SDS011;64828;49.956;8.636;2023-08-06T00:43:38;5.13;;;3.50;;
76098;SDS011;64828;49.956;8.636;2023-08-06T00:43:53;5.20;;;3.45;;
76098;SDS011;64828;49.956;8.636;2023-08-06T00:44:09;5.30;;;3.50;;
76098;SDS011;64828;49.956;8.636;2023-08-06T00:44:24;6.35;;;3.45;;
76098;SDS011;64828;49.956;8.636;2023-08-06T00:44:40;6.33;;;3.50;;
76098;SDS011;64828;49.956;8.636;2023-08-06T00:44:55;5.38;;;3.40;;
76098;SDS011;64828;49.956;8.636;2023-08-06T00:45:11;5.03;;;3.27;;
76098;SDS011;64828;49.956;8.636;2023-08-06T00:45:26;4.65;;;3.38;;
76098;SDS011;64828;49.956;8.636;2023-08-06T00:45:44;5.75;;;3.65;;
76098;SDS011;64828;49.956;8.636;2023-08-06T00:46:00;5.87;;;3.50;;
76098;SDS011;64828;49.956;8.636;2023-08-06T00:46:16;5.18;;;3.45;;
76098;SDS011;64828;49.956;8.636;2023-08-06T00:46:32;4.95;;;3.47;;
76098;SDS011;64828;49.956;8.636;2023-08-06T00:46:48;6.68;;;3.70;;
76098;SDS011;64828;49.956;8.636;2023-08-06T00:47:04;7.28;;;3.45;;
76098;SDS011;64828;49.956;8.636;2023-08-06T00:47:21;6.47;;;3.13;;
76098;SDS011;64828;49.956;8.636;2023-08-06T00:47:36;5.53;;;3.17;;
76098;SDS011;64828;49.956;8.636;2023-08-06T00:47:54;5.13;;;3.60;;
76098;SDS011;64828;49.956;8.636;2023-08-06T00:48:09;5.30;;;3.80;;
76098;SDS011;64828;49.956;8.636;2023-08-06T00:48:25;5.13;;;3.70;;
76098;SDS011;64828;49.956;8.636;2023-08-06T00:48:41;4.63;;;3.50;;
76098;SDS011;64828;49.956;8.636;2023-08-06T00:48:57;5.15;;;3.38;;
76098;SDS011;64828;49.956;8.636;2023-08-06T00:49:13;5.60;;;3.30;;
76098;SDS011;64828;49.956;8.636;2023-08-06T00:49:28;6.50;;;3.40;;
76098;SDS011;64828;49.956;8.636;2023-08-06T00:49:44;7.35;;;3.55;;
76098;SDS011;64828;49.956;8.636;2023-08-06T00:49:59;6.80;;;3.40;;
76098;SDS011;64828;49.956;8.636;2023-08-06T00:50:15;6.72;;;3.50;;
76098;SDS011;64828;49.956;8.636;2023-08-06T00:50:31;5.80;;;3.50;;
76098;SDS011;64828;49.956;8.636;2023-08-06T00:50:46;5.60;;;3.37;;
76098;SDS011;64828;49.956;8.636;2023-08-06T00:51:02;6.15;;;3.50;;
76098;SDS011;64828;49.956;8.636;2023-08-06T00:51:18;6.22;;;3.38;;
76098;SDS011;64828;49.956;8.636;2023-08-06T00:51:34;5.60;;;3.30;;
76098;SDS011;64828;49.956;8.636;2023-08-06T00:51:50;5.20;;;3.40;;
76098;SDS011;64828;49.956;8.636;2023-08-06T00:52:06;6.13;;;3.58;;
76098;SDS011;64828;49.956;8.636;2023-08-06T00:52:23;6.65;;;3.63;;
76098;SDS011;64828;49.956;8.636;2023-08-06T00:52:39;6.40;;;3.70;;
76098;SDS011;64828;49.956;8.636;2023-08-06T00:52:55;5.85;;;3.70;;
76098;SDS011;64828;49.956;8.636;2023-08-06T00:53:10;6.15;;;3.63;;
76098;SDS011;64828;49.956;8.636;2023-08-06T00:53:26;6.13;;;3.47;;
76098;SDS011;64828;49.956;8.636;2023-08-06T00:53:42;5.25;;;3.40;;
76098;SDS011;64828;49.956;8.636;2023-08-06T00:53:58;4.90;;;3.40;;
76098;SDS011;64828;49.956;8.636;2023-08-06T00:54:13;6.00;;;3.65;;
76098;SDS011;64828;49.956;8.636;2023-08-06T00:54:29;6.65;;;3.92;;
76098;SDS011;64828;49.956;8.636;2023-08-06T00:54:46;5.50;;;3.57;;
76098;SDS011;64828;49.956;8.636;2023-08-06T00:55:01;5.70;;;3.42;;
76098;SDS011;64828;49.956;8.636;2023-08-06T00:55:17;7.30;;;3.50;;
76098;SDS011;64828;49.956;8.636;2023-08-06T00:55:33;6.37;;;3.37;;
76098;SDS011;64828;49.956;8.636;2023-08-06T00:55:49;5.60;;;3.20;;
76098;SDS011;64828;49.956;8.636;2023-08-06T00:56:06;7.75;;;3.65;;
76098;SDS011;64828;49.956;8.636;2023-08-06T00:56:24;7.85;;;3.95;;
76098;SDS011;64828;49.956;8.636;2023-08-06T00:56:40;5.85;;;3.63;;
76098;SDS011;64828;49.956;8.636;2023-08-06T00:56:57;4.70;;;3.38;;
76098;SDS011;64828;49.956;8.636;2023-08-06T00:57:13;4.97;;;3.47;;
76098;SDS011;64828;49.956;8.636;2023-08-06T00:57:29;6.13;;;3.40;;
76098;SDS011;64828;49.956;8.636;2023-08-06T00:57:45;6.53;;;3.55;;
76098;SDS011;64828;49.956;8.636;2023-08-06T00:58:00;5.67;;;3.63;;
76098;SDS011;64828;49.956;8.636;2023-08-06T00:58:16;4.80;;;3.30;;
76098;SDS011;64828;49.956;8.636;2023-08-06T00:58:32;5.60;;;3.23;;
76098;SDS011;64828;49.956;8.636;2023-08-06T00:58:48;6.28;;;3.25;;
76098;SDS011;64828;49.956;8.636;2023-08-06T00:59:04;5.35;;;3.22;;
76098;SDS011;64828;49.956;8.636;2023-08-06T00:59:20;5.68;;;3.38;;
76098;SDS011;64828;49.956;8.636;2023-08-06T00:59:36;5.03;;;3.13;;
76098;SDS011;64828;49.956;8.636;2023-08-06T00:59:52;5.00;;;3.17;;
76098;SDS011;64828;49.956;8.636;2023-08-06T01:00:09;4.47;;;3.20;;
76098;SDS011;64828;49.956;8.636;2023-08-06T01:00:25;4.57;;;3.42;;
76098;SDS011;64828;49.956;8.636;2023-08-06T01:00:41;4.85;;;3.42;;
76098;SDS011;64828;49.956;8.636;2023-08-06T01:00:57;4.53;;;3.10;;
76098;SDS011;64828;49.956;8.636;2023-08-06T01:01:12;5.50;;;3.17;;
76098;SDS011;64828;49.956;8.636;2023-08-06T01:01:28;6.43;;;3.17;;
76098;SDS011;64828;49.956;8.636;2023-08-06T01:01:43;5.43;;;3.03;;
76098;SDS011;64828;49.956;8.636;2023-08-06T01:01:59;4.82;;;3.00;;
76098;SDS011;64828;49.956;8.636;2023-08-06T01:02:15;4.65;;;3.10;;
76098;SDS011;64828;49.956;8.636;2023-08-06T01:02:31;5.15;;;3.30;;
76098;SDS011;64828;49.956;8.636;2023-08-06T01:02:47;6.50;;;3.47;;
76098;SDS011;64828;49.956;8.636;2023-08-06T01:03:03;5.65;;;3.38;;
76098;SDS011;64828;49.956;8.636;2023-08-06T01:03:19;5.10;;;3.13;;
76098;SDS011;64828;49.956;8.636;2023-08-06T01:03:34;4.93;;;2.97;;
76098;SDS011;64828;49.956;8.636;2023-08-06T01:03:50;4.77;;;3.20;;
76098;SDS011;64828;49.956;8.636;2023-08-06T01:04:05;5.38;;;3.42;;
76098;SDS011;64828;49.956;8.636;2023-08-06T01:04:22;5.30;;;3.50;;
76098;SDS011;64828;49.956;8.636;2023-08-06T01:04:38;5.68;;;3.50;;
76098;SDS011;64828;49.956;8.636;2023-08-06T01:04:53;5.60;;;3.37;;
76098;SDS011;64828;49.956;8.636;2023-08-06T01:05:09;4.82;;;3.35;;
76098;SDS011;64828;49.956;8.636;2023-08-06T01:05:24;5.47;;;3.30;;
76098;SDS011;64828;49.956;8.636;2023-08-06T01:05:40;5.37;;;3.27;;
76098;SDS011;64828;49.956;8.636;2023-08-06T01:05:55;5.05;;;3.45;;
76098;SDS011;64828;49.956;8.636;2023-08-06T01:06:11;5.15;;;3.38;;
76098;SDS011;64828;49.956;8.636;2023-08-06T01:06:34;5.77;;;3.27;;
76098;SDS011;64828;49.956;8.636;2023-08-06T01:07:44;4.43;;;3.10;;
76098;SDS011;64828;49.956;8.636;2023-08-06T01:08:23;9.90;;;3.58;;
76098;SDS011;64828;49.956;8.636;2023-08-06T01:09:04;4.55;;;3.13;;
76098;SDS011;64828;49.956;8.636;2023-08-06T01:09:49;4.18;;;3.00;;
76098;SDS011;64828;49.956;8.636;2023-08-06T01:10:18;4.28;;;3.00;;
76098;SDS011;64828;49.956;8.636;2023-08-06T01:11:26;5.95;;;3.83;;
76098;SDS011;64828;49.956;8.636;2023-08-06T01:11:56;6.10;;;3.00;;
76098;SDS011;64828;49.956;8.636;2023-08-06T01:13:37;5.53;;;3.10;;
76098;SDS011;64828;49.956;8.636;2023-08-06T01:14:02;5.18;;;3.25;;
76098;SDS011;64828;49.956;8.636;2023-08-06T01:14:57;3.88;;;2.97;;
76098;SDS011;64828;49.956;8.636;2023-08-06T01:15:22;6.15;;;3.42;;
76098;SDS011;64828;49.956;8.636;2023-08-06T01:15:54;6.03;;;3.50;;
76098;SDS011;64828;49.956;8.636;2023-08-06T01:16:17;4.88;;;3.28;;
76098;SDS011;64828;49.956;8.636;2023-08-06T01:16:35;3.80;;;2.90;;
76098;SDS011;64828;49.956;8.636;2023-08-06T01:16:51;3.53;;;2.85;;
76098;SDS011;64828;49.956;8.636;2023-08-06T01:17:08;3.92;;;3.10;;
76098;SDS011;64828;49.956;8.636;2023-08-06T01:17:25;4.78;;;3.10;;
76098;SDS011;64828;49.956;8.636;2023-08-06T01:17:42;5.22;;;3.08;;
76098;SDS011;64828;49.956;8.636;2023-08-06T01:17:58;4.75;;;3.08;;
76098;SDS011;64828;49.956;8.636;2023-08-06T01:18:15;4.47;;;3.05;;
76098;SDS011;64828;49.956;8.636;2023-08-06T01:18:31;4.22;;;3.08;;
76098;SDS011;64828;49.956;8.636;2023-08-06T01:18:47;5.55;;;3.10;;
76098;SDS011;64828;49.956;8.636;2023-08-06T01:19:04;6.25;;;3.50;;
76098;SDS011;64828;49.956;8.636;2023-08-06T01:19:19;5.90;;;3.50;;
76098;SDS011;64828;49.956;8.636;2023-08-06T01:19:36;4.72;;;3.17;;
76098;SDS011;64828;49.956;8.636;2023-08-06T01:19:51;4.25;;;3.00;;
76098;SDS011;64828;49.956;8.636;2023-08-06T01:20:08;5.78;;;3.22;;
76098;SDS011;64828;49.956;8.636;2023-08-06T01:20:30;5.80;;;3.33;;
76098;SDS011;64828;49.956;8.636;2023-08-06T01:20:46;5.32;;;3.22;;
76098;SDS011;64828;49.956;8.636;2023-08-06T01:21:01;4.55;;;3.25;;
76098;SDS011;64828;49.956;8.636;2023-08-06T01:21:17;4.63;;;3.23;;
76098;SDS011;64828;49.956;8.636;2023-08-06T01:21:33;5.40;;;3.30;;
76098;SDS011;64828;49.956;8.636;2023-08-06T01:21:49;5.83;;;3.60;;
76098;SDS011;64828;49.956;8.636;2023-08-06T01:22:04;5.75;;;3.90;;
76098;SDS011;64828;49.956;8.636;2023-08-06T01:22:20;7.20;;;3.73;;
76098;SDS011;64828;49.956;8.636;2023-08-06T01:22:35;7.30;;;3.33;;
76098;SDS011;64828;49.956;8.636;2023-08-06T01:22:51;5.33;;;3.20;;
76098;SDS011;64828;49.956;8.636;2023-08-06T01:23:06;5.03;;;3.30;;
76098;SDS011;64828;49.956;8.636;2023-08-06T01:23:22;5.90;;;3.50;;
76098;SDS011;64828;49.956;8.636;2023-08-06T01:23:39;5.55;;;3.17;;
76098;SDS011;64828;49.956;8.636;2023-08-06T01:23:56;5.50;;;3.10;;
76098;SDS011;64828;49.956;8.636;2023-08-06T01:24:11;5.10;;;3.20;;
76098;SDS011;64828;49.956;8.636;2023-08-06T01:24:27;5.30;;;3.67;;
76098;SDS011;64828;49.956;8.636;2023-08-06T01:24:44;5.25;;;3.70;;
76098;SDS011;64828;49.956;8.636;2023-08-06T01:25:04;5.80;;;3.22;;
76098;SDS011;64828;49.956;8.636;2023-08-06T01:25:20;5.00;;;3.13;;
76098;SDS011;64828;49.956;8.636;2023-08-06T01:26:03;4.38;;;3.20;;
76098;SDS011;64828;49.956;8.636;2023-08-06T01:26:35;5.68;;;3.15;;
76098;SDS011;64828;49.956;8.636;2023-08-06T01:27:08;5.15;;;3.30;;
76098;SDS011;64828;49.956;8.636;2023-08-06T01:27:33;4.72;;;3.13;;
76098;SDS011;64828;49.956;8.636;2023-08-06T01:27:57;4.75;;;3.10;;
76098;SDS011;64828;49.956;8.636;2023-08-06T01:28:48;5.25;;;3.20;;
76098;SDS011;64828;49.956;8.636;2023-08-06T01:29:19;5.55;;;3.50;;
76098;SDS011;64828;49.956;8.636;2023-08-06T01:29:47;5.40;;;3.30;;
76098;SDS011;64828;49.956;8.636;2023-08-06T01:30:35;4.50;;;3.20;;
76098;SDS011;64828;49.956;8.636;2023-08-06T01:30:56;5.88;;;3.35;;
76098;SDS011;64828;49.956;8.636;2023-08-06T01:31:15;4.95;;;3.13;;
76098;SDS011;64828;49.956;8.636;2023-08-06T01:31:37;4.13;;;3.00;;
76098;SDS011;64828;49.956;8.636;2023-08-06T01:31:54;5.03;;;3.05;;
76098;SDS011;64828;49.956;8.636;2023-08-06T01:32:12;4.60;;;2.95;;
76098;SDS011;64828;49.956;8.636;2023-08-06T01:32:30;4.20;;;2.83;;
76098;SDS011;64828;49.956;8.636;2023-08-06T01:32:49;5.28;;;3.03;;
76098;SDS011;64828;49.956;8.636;2023-08-06T01:33:09;4.82;;;3.20;;
76098;SDS011;64828;49.956;8.636;2023-08-06T01:33:30;4.20;;;3.00;;
76098;SDS011;64828;49.956;8.636;2023-08-06T01:33:49;5.22;;;3.28;;
76098;SDS011;64828;49.956;8.636;2023-08-06T01:34:07;6.07;;;3.20;;
76098;SDS011;64828;49.956;8.636;2023-08-06T01:34:32;6.07;;;3.08;;
76098;SDS011;64828;49.956;8.636;2023-08-06T01:34:49;5.18;;;3.00;;
76098;SDS011;64828;49.956;8.636;2023-08-06T01:35:06;3.78;;;2.83;;
76098;SDS011;64828;49.956;8.636;2023-08-06T01:35:23;4.32;;;2.90;;
76098;SDS011;64828;49.956;8.636;2023-08-06T01:35:42;4.97;;;3.00;;
76098;SDS011;64828;49.956;8.636;2023-08-06T01:35:57;4.50;;;3.00;;
76098;SDS011;64828;49.956;8.636;2023-08-06T01:36:15;5.00;;;3.05;;
76098;SDS011;64828;49.956;8.636;2023-08-06T01:36:33;6.43;;;3.33;;
76098;SDS011;64828;49.956;8.636;2023-08-06T01:36:49;6.15;;;3.20;;
76098;SDS011;64828;49.956;8.636;2023-08-06T01:37:05;4.85;;;2.90;;
76098;SDS011;64828;49.956;8.636;2023-08-06T01:37:21;4.63;;;3.03;;
76098;SDS011;64828;49.956;8.636;2023-08-06T01:37:37;5.90;;;3.30;;
76098;SDS011;64828;49.956;8.636;2023-08-06T01:37:54;5.75;;;3.20;;
76098;SDS011;64828;49.956;8.636;2023-08-06T01:38:11;5.00;;;2.90;;
76098;SDS011;64828;49.956;8.636;2023-08-06T01:38:26;4.67;;;2.90;;
76098;SDS011;64828;49.956;8.636;2023-08-06T01:38:43;5.20;;;3.00;;
76098;SDS011;64828;49.956;8.636;2023-08-06T01:38:58;7.00;;;3.10;;
76098;SDS011;64828;49.956;8.636;2023-08-06T01:39:14;6.68;;;3.00;;
76098;SDS011;64828;49.956;8.636;2023-08-06T01:39:32;5.00;;;2.90;;
76098;SDS011;64828;49.956;8.636;2023-08-06T01:39:48;4.95;;;2.80;;
76098;SDS011;64828;49.956;8.636;2023-08-06T01:40:10;5.47;;;2.90;;
76098;SDS011;64828;49.956;8.636;2023-08-06T01:40:29;5.90;;;3.17;;
76098;SDS011;64828;49.956;8.636;2023-08-06T01:40:44;4.83;;;3.10;;
76098;SDS011;64828;49.956;8.636;2023-08-06T01:41:00;5.18;;;3.05;;
76098;SDS011;64828;49.956;8.636;2023-08-06T01:41:15;5.93;;;2.93;;
76098;SDS011;64828;49.956;8.636;2023-08-06T01:41:31;6.07;;;2.90;;
76098;SDS011;64828;49.956;8.636;2023-08-06T01:41:47;5.63;;;3.03;;
76098;SDS011;64828;49.956;8.636;2023-08-06T01:42:03;4.47;;;2.90;;
76098;SDS011;64828;49.956;8.636;2023-08-06T01:42:18;3.47;;;2.75;;
76098;SDS011;64828;49.956;8.636;2023-08-06T01:42:34;3.30;;;2.70;;
76098;SDS011;64828;49.956;8.636;2023-08-06T01:42:49;3.77;;;2.63;;
76098;SDS011;64828;49.956;8.636;2023-08-06T01:43:05;4.10;;;2.80;;
76098;SDS011;64828;49.956;8.636;2023-08-06T01:43:20;4.13;;;2.90;;
76098;SDS011;64828;49.956;8.636;2023-08-06T01:43:36;5.20;;;2.83;;
76098;SDS011;64828;49.956;8.636;2023-08-06T01:43:51;7.78;;;3.00;;
76098;SDS011;64828;49.956;8.636;2023-08-06T01:44:07;6.63;;;2.93;;
76098;SDS011;64828;49.956;8.636;2023-08-06T01:44:22;3.58;;;2.70;;
76098;SDS011;64828;49.956;8.636;2023-08-06T01:44:38;5.10;;;3.13;;
76098;SDS011;64828;49.956;8.636;2023-08-06T01:44:53;6.05;;;3.08;;
76098;SDS011;64828;49.956;8.636;2023-08-06T01:45:09;5.20;;;2.80;;
76098;SDS011;64828;49.956;8.636;2023-08-06T01:45:25;5.00;;;2.92;;
76098;SDS011;64828;49.956;8.636;2023-08-06T01:45:40;4.72;;;2.90;;
76098;SDS011;64828;49.956;8.636;2023-08-06T01:45:56;7.30;;;2.97;;